createdAt,value
2023-05-04T00:12:21.722Z,1.1
2023-05-04T00:27:21.968Z,1.1
2023-05-04T00:42:21.844Z,1.1
2023-05-04T00:57:29.929Z,1.1
2023-05-04T01:12:31.962Z,1.1
2023-05-04T01:27:34.717Z,1.1
2023-05-04T01:42:31.547Z,1.1
2023-05-04T01:57:39.019Z,1.1
2023-05-04T02:12:40.279Z,1.1
2023-05-04T02:27:41.515Z,1.1
2023-05-04T02:42:42.056Z,1.2
2023-05-04T02:57:50.573Z,1.2
2023-05-04T04:43:02.860Z,1.3
2023-05-04T04:58:11.787Z,1.3
2023-05-04T05:13:12.980Z,1.3
2023-05-04T05:28:13.110Z,1.4
2023-05-04T05:43:12.699Z,1.3
2023-05-04T05:58:21.631Z,1.3
2023-05-04T06:13:22.595Z,1.3
2023-05-04T06:28:23.898Z,1.3
2023-05-04T06:43:30.353Z,1.2
2023-05-04T06:58:47.967Z,1.2
2023-05-04T07:13:48.128Z,1.2
2023-05-04T07:28:49.174Z,1.2
2023-05-04T07:43:32.959Z,1
2023-05-04T08:43:56.302Z,1.1
2023-05-04T08:59:05.074Z,1.2
2023-05-04T09:14:05.115Z,1.2
2023-05-04T09:29:06.209Z,1.2
2023-05-04T09:43:52.750Z,1.2
2023-05-04T09:59:01.688Z,1.2
2023-05-04T10:14:02.638Z,1.2
2023-05-04T10:29:03.722Z,1.2
2023-05-04T10:44:03.212Z,1.2
2023-05-04T10:59:11.290Z,1.1
2023-05-04T11:44:13.772Z,1
2023-05-04T11:59:22.319Z,1
2023-05-04T12:14:23.682Z,1
2023-05-04T12:29:24.795Z,1
2023-05-04T12:44:23.697Z,0.7
2023-05-04T12:59:33.070Z,0.7
2023-05-04T13:14:41.091Z,0.7
2023-05-04T13:29:34.098Z,0.7
2023-05-04T13:44:33.927Z,0.6
2023-05-04T15:44:54.221Z,1
2023-05-04T16:00:03.252Z,1
2023-05-04T16:15:03.387Z,1
2023-05-04T16:30:04.999Z,0.9
2023-05-04T16:45:04.633Z,0.7
2023-05-04T17:45:14.662Z,0.7
2023-05-04T18:00:25.384Z,0.7
2023-05-04T18:45:24.656Z,0.9
2023-05-04T19:00:32.809Z,0.9
2023-05-04T19:15:33.282Z,0.9
2023-05-04T20:45:45.320Z,1.1
2023-05-04T21:00:53.214Z,1.1
2023-05-04T21:15:54.554Z,1.1
2023-05-04T21:30:55.638Z,1.1
2023-05-04T21:45:55.066Z,1.2
2023-05-04T22:01:03.795Z,1.2
2023-05-04T22:16:03.969Z,1.2
2023-05-04T22:31:05.026Z,1.2
2023-05-04T22:46:05.366Z,1.1
